Time;durP1;ratioP1;P1;durP2;ratioP2;P2;SDS_P1;SDS_P2;PMS_P1;PMS_P2;Temp;Humidity;BMP_temperature;BMP_pressure;BME280_temperature;BME280_humidity;BME280_pressure;Samples;Min_cycle;Max_cycle;Signal;HPM_P1;HPM_P2
2023/01/25 00:01:52;;;;;;;40.47;17.08;;;;;;;3.03;100.00;102743.53;5002141;28;20030;-78
2023/01/25 00:04:21;;;;;;;34.17;14.13;;;;;;;3.10;100.00;102743.94;5000862;28;20505;-78
2023/01/25 00:06:47;;;;;;;37.10;15.57;;;;;;;3.11;100.00;102754.44;5002067;28;20038;-78
2023/01/25 00:09:13;;;;;;;36.58;14.57;;;;;;;3.11;100.00;102751.81;5001105;28;20038;-79
2023/01/25 00:11:39;;;;;;;35.75;14.57;;;;;;;3.12;100.00;102743.22;5002693;28;20026;-78
2023/01/25 00:14:04;;;;;;;37.13;15.02;;;;;;;3.12;100.00;102750.09;4997865;28;20887;-78
2023/01/25 00:16:30;;;;;;;33.20;14.88;;;;;;;3.00;100.00;102758.13;4998346;28;20075;-78
2023/01/25 00:18:56;;;;;;;33.83;15.18;;;;;;;2.96;100.00;102746.63;5004953;28;20034;-76
2023/01/25 00:21:23;;;;;;;35.28;14.48;;;;;;;3.03;100.00;102748.75;5000178;28;20400;-76
2023/01/25 00:23:49;;;;;;;37.13;15.02;;;;;;;3.07;100.00;102745.53;5003506;28;20038;-77
2023/01/25 00:26:15;;;;;;;34.95;15.82;;;;;;;3.13;100.00;102750.22;4996890;28;20068;-76
2023/01/25 00:28:40;;;;;;;35.72;15.35;;;;;;;3.12;100.00;102742.28;4999510;28;20068;-78
2023/01/25 00:31:15;;;;;;;36.97;15.18;;;;;;;3.09;100.00;102745.59;5000081;28;20030;-77
2023/01/25 00:33:51;;;;;;;37.60;15.13;;;;;;;3.15;100.00;102739.88;5002153;28;20056;-77
2023/01/25 00:36:37;;;;;;;40.95;14.60;;;;;;;3.18;100.00;102729.63;5002025;28;20515;-77
2023/01/25 00:39:04;;;;;;;31.77;13.55;;;;;;;3.14;100.00;102736.34;4999672;28;20464;-77
2023/01/25 00:41:29;;;;;;;33.65;16.08;;;;;;;3.14;100.00;102735.47;5001102;28;20045;-77
2023/01/25 00:43:55;;;;;;;30.92;13.82;;;;;;;3.13;100.00;102736.28;5001737;28;20045;-77
2023/01/25 00:46:20;;;;;;;36.63;15.15;;;;;;;3.06;100.00;102728.06;5000278;28;20045;-77
2023/01/25 00:48:46;;;;;;;34.22;15.25;;;;;;;3.05;100.00;102728.88;5001545;28;20035;-77
2023/01/25 00:51:12;;;;;;;32.97;15.27;;;;;;;3.06;100.00;102724.56;4999144;28;20034;-76
2023/01/25 00:53:37;;;;;;;35.88;15.15;;;;;;;3.07;100.00;102721.16;4998250;28;20039;-77
2023/01/25 00:56:03;;;;;;;37.28;15.45;;;;;;;3.08;100.00;102716.00;5000300;28;20502;-77
2023/01/25 00:58:30;;;;;;;35.78;14.90;;;;;;;3.13;100.00;102707.56;5000382;28;20035;-77
2023/01/25 01:00:56;;;;;;;34.15;14.27;;;;;;;3.16;100.00;102712.97;5001433;28;20085;-76
2023/01/25 01:03:22;;;;;;;35.10;14.75;;;;;;;3.22;100.00;102722.06;4998128;28;20026;-77
2023/01/25 01:05:47;;;;;;;33.75;14.52;;;;;;;3.24;100.00;102711.72;4999955;28;20035;-77
2023/01/25 01:08:14;;;;;;;34.08;15.07;;;;;;;3.24;100.00;102706.47;5001701;28;20103;-76
2023/01/25 01:10:40;;;;;;;34.90;15.57;;;;;;;3.26;100.00;102702.25;4999114;28;20058;-78
2023/01/25 01:13:06;;;;;;;31.33;13.15;;;;;;;3.23;100.00;102700.38;4994936;28;20078;-77
2023/01/25 01:15:35;;;;;;;38.13;15.82;;;;;;;3.27;100.00;102691.94;5001175;28;20076;-77
2023/01/25 01:18:01;;;;;;;33.50;15.75;;;;;;;3.23;100.00;102687.31;5000162;28;20121;-77
2023/01/25 01:20:26;;;;;;;37.28;13.88;;;;;;;3.21;100.00;102685.44;4998498;28;20122;-77
2023/01/25 01:22:54;;;;;;;36.78;15.40;;;;;;;3.16;100.00;102682.56;4996570;28;20037;-77
2023/01/25 01:25:19;;;;;;;39.97;16.73;;;;;;;3.15;100.00;102683.38;5002708;28;20149;-77
2023/01/25 01:27:45;;;;;;;33.72;13.15;;;;;;;3.15;100.00;102685.09;5001699;28;20037;-77
2023/01/25 01:30:11;;;;;;;40.30;16.33;;;;;;;3.09;100.00;102680.38;4999943;28;20034;-77
2023/01/25 01:32:37;;;;;;;36.05;15.25;;;;;;;3.07;100.00;102676.81;4995627;28;20034;-76
2023/01/25 01:35:02;;;;;;;35.13;15.10;;;;;;;3.04;100.00;102671.41;5001186;28;20026;-78
2023/01/25 01:37:27;;;;;;;37.55;14.52;;;;;;;3.14;100.00;102668.50;4999148;28;20496;-77
2023/01/25 01:39:53;;;;;;;38.60;14.77;;;;;;;3.20;100.00;102668.00;4999684;28;20042;-77
2023/01/25 01:42:18;;;;;;;33.45;13.02;;;;;;;3.26;100.00;102663.13;5004126;28;20045;-78
2023/01/25 01:44:52;;;;;;;39.10;15.15;;;;;;;3.27;100.00;102660.59;5004071;28;20033;-77
2023/01/25 01:47:27;;;;;;;35.97;14.02;;;;;;;3.24;100.00;102659.50;5006147;28;20022;-77
2023/01/25 01:50:03;;;;;;;33.28;14.35;;;;;;;3.28;100.00;102654.56;4984729;28;20030;-77
2023/01/25 01:52:36;;;;;;;35.00;14.75;;;;;;;3.30;100.00;102659.84;5002288;28;20493;-77
2023/01/25 01:55:14;;;;;;;33.53;14.30;;;;;;;3.26;100.00;102650.97;5004213;28;20034;-77
2023/01/25 01:57:48;;;;;;;36.85;15.27;;;;;;;3.28;100.00;102651.06;4987978;28;20489;-77
2023/01/25 02:00:15;;;;;;;36.75;14.80;;;;;;;3.25;100.00;102640.44;5000703;28;20037;-77
2023/01/25 02:02:41;;;;;;;38.35;15.80;;;;;;;3.23;100.00;102639.47;4985809;28;20089;-77
2023/01/25 02:05:16;;;;;;;45.60;16.52;;;;;;;3.24;100.00;102629.09;5002015;28;20443;-77
2023/01/25 02:07:45;;;;;;;38.95;15.55;;;;;;;3.25;100.00;102635.22;4989652;28;20041;-77
2023/01/25 02:10:11;;;;;;;39.92;16.35;;;;;;;3.22;100.00;102629.81;5003230;28;20034;-78
2023/01/25 02:12:41;;;;;;;33.70;13.90;;;;;;;3.33;100.00;102622.59;5002008;28;20515;-77
2023/01/25 02:15:07;;;;;;;38.58;15.48;;;;;;;3.33;100.00;102620.91;5003967;28;20088;-77
2023/01/25 02:17:36;;;;;;;37.58;16.25;;;;;;;3.33;100.00;102623.50;4998456;28;20080;-77
2023/01/25 02:20:05;;;;;;;37.55;15.30;;;;;;;3.34;100.00;102613.97;5001791;28;20038;-77
2023/01/25 02:22:42;;;;;;;37.72;15.25;;;;;;;3.27;100.00;102612.72;4987364;28;20040;-77
2023/01/25 02:25:10;;;;;;;39.95;15.75;;;;;;;3.24;100.00;102617.75;4998905;28;20035;-77
2023/01/25 02:27:41;;;;;;;42.03;16.50;;;;;;;3.13;100.00;102618.88;4999342;28;20039;-77
2023/01/25 02:30:08;;;;;;;34.53;14.73;;;;;;;3.01;100.00;102617.34;4995635;28;20041;-77
2023/01/25 02:32:33;;;;;;;37.80;14.60;;;;;;;3.13;100.00;102609.31;5003942;28;20038;-77
2023/01/25 02:34:59;;;;;;;36.63;15.50;;;;;;;3.24;100.00;102612.53;4985763;28;20034;-77
2023/01/25 02:37:25;;;;;;;37.35;15.75;;;;;;;3.12;100.00;102612.75;5003240;28;20160;-77
2023/01/25 02:39:50;;;;;;;29.58;13.68;;;;;;;3.08;100.00;102611.66;5002479;28;20405;-77
2023/01/25 02:42:16;;;;;;;34.60;14.60;;;;;;;3.11;100.00;102607.44;5001223;28;20038;-77
2023/01/25 02:44:42;;;;;;;36.22;14.45;;;;;;;3.11;100.00;102604.81;5010981;28;20021;-77
2023/01/25 02:47:08;;;;;;;34.30;14.13;;;;;;;3.13;100.00;102603.22;5000227;28;20022;-77
2023/01/25 02:49:35;;;;;;;35.55;14.82;;;;;;;3.13;100.00;102603.22;5003262;28;20663;-77
2023/01/25 02:52:02;;;;;;;40.38;15.70;;;;;;;3.11;100.00;102604.81;4987149;28;20108;-77
2023/01/25 02:54:27;;;;;;;36.78;14.77;;;;;;;3.08;100.00;102603.81;5001556;28;20040;-77
2023/01/25 02:56:55;;;;;;;42.00;16.63;;;;;;;2.98;100.00;102601.50;4996987;28;20067;-77
2023/01/25 02:59:22;;;;;;;36.33;15.35;;;;;;;2.96;100.00;102603.16;5003360;28;20113;-76
2023/01/25 03:01:51;;;;;;;35.72;14.10;;;;;;;2.93;100.00;102600.34;5001268;28;20508;-77
2023/01/25 03:04:16;;;;;;;45.38;17.35;;;;;;;2.85;100.00;102592.06;5002730;28;20060;-76
2023/01/25 03:06:42;;;;;;;37.72;15.60;;;;;;;2.82;100.00;102598.81;5000678;28;20039;-77
2023/01/25 03:09:09;;;;;;;36.38;15.40;;;;;;;2.91;100.00;102591.53;5001859;28;20033;-77
2023/01/25 03:11:37;;;;;;;37.53;16.33;;;;;;;2.98;100.00;102596.28;5001296;28;20041;-77
2023/01/25 03:14:02;;;;;;;34.08;15.45;;;;;;;2.94;100.00;102593.44;5001647;28;20042;-77
2023/01/25 03:16:30;;;;;;;34.45;14.63;;;;;;;2.92;100.00;102593.31;5001809;28;20408;-77
2023/01/25 03:18:55;;;;;;;39.83;16.02;;;;;;;2.90;100.00;102597.56;5002024;28;20033;-77
2023/01/25 03:21:22;;;;;;;38.08;16.23;;;;;;;2.95;100.00;102595.22;5002134;28;20088;-76
2023/01/25 03:23:58;;;;;;;41.50;16.52;;;;;;;3.02;100.00;102592.16;5001931;28;20034;-77
2023/01/25 03:26:25;;;;;;;38.38;15.75;;;;;;;3.04;100.00;102586.22;4995816;28;20026;-77
2023/01/25 03:29:02;;;;;;;37.17;14.25;;;;;;;3.12;100.00;102590.97;4999157;28;20497;-77
2023/01/25 03:31:28;;;;;;;38.20;15.88;;;;;;;3.12;100.00;102585.72;5001742;28;20037;-77
2023/01/25 03:33:55;;;;;;;39.88;16.48;;;;;;;3.08;100.00;102582.97;4999988;28;20038;-77
2023/01/25 03:36:24;;;;;;;41.03;16.15;;;;;;;3.01;100.00;102580.84;5003161;28;20033;-77
2023/01/25 03:38:50;;;;;;;39.38;16.20;;;;;;;2.96;100.00;102590.09;5000712;28;20089;-77
2023/01/25 03:41:16;;;;;;;40.28;16.15;;;;;;;2.99;100.00;102579.84;5001764;28;20389;-77
2023/01/25 03:43:43;;;;;;;34.25;14.90;;;;;;;3.04;100.00;102583.63;4992280;28;20042;-77
2023/01/25 03:46:09;;;;;;;37.08;15.95;;;;;;;3.05;100.00;102579.28;5003155;28;20408;-77
2023/01/25 03:48:36;;;;;;;39.22;14.93;;;;;;;3.08;100.00;102580.34;5002982;28;20040;-77
2023/01/25 03:51:03;;;;;;;36.70;15.77;;;;;;;3.05;100.00;102580.19;4999559;28;20156;-76
2023/01/25 03:53:30;;;;;;;36.92;16.60;;;;;;;3.09;100.00;102573.41;5001896;28;20591;-77
2023/01/25 03:56:07;;;;;;;35.88;14.75;;;;;;;3.12;100.00;102583.13;5000344;28;20417;-77
2023/01/25 03:58:35;;;;;;;36.90;16.52;;;;;;;3.13;100.00;102571.91;4986736;28;20401;-77
2023/01/25 04:01:02;;;;;;;33.72;15.35;;;;;;;3.20;100.00;102576.66;4998403;28;20053;-77
2023/01/25 04:03:28;;;;;;;38.88;16.58;;;;;;;3.18;100.00;102578.28;5001492;28;20030;-78
2023/01/25 04:05:54;;;;;;;38.30;15.75;;;;;;;3.19;100.00;102577.44;4998237;28;20133;-77
2023/01/25 04:08:21;;;;;;;39.13;15.80;;;;;;;3.15;100.00;102570.28;5003470;28;20038;-77
2023/01/25 04:11:13;;;;;;;40.58;15.75;;;;;;;3.17;100.00;102561.72;4993344;28;20046;-77
2023/01/25 04:13:42;;;;;;;36.83;15.23;;;;;;;3.12;100.00;102564.88;4998062;28;20464;-77
2023/01/25 04:16:11;;;;;;;37.38;15.25;;;;;;;3.18;100.00;102565.22;4999389;28;20592;-77
2023/01/25 04:18:54;;;;;;;35.22;15.50;;;;;;;3.26;100.00;102561.34;5001620;28;20034;-77
2023/01/25 04:21:20;;;;;;;37.00;15.32;;;;;;;3.22;100.00;102557.66;5002038;28;20091;-77
2023/01/25 04:23:45;;;;;;;34.92;14.70;;;;;;;3.20;100.00;102568.84;4995791;28;20041;-78
2023/01/25 04:26:13;;;;;;;35.75;15.65;;;;;;;3.21;100.00;102557.56;5002234;28;20421;-78
2023/01/25 04:28:39;;;;;;;30.30;12.55;;;;;;;3.29;100.00;102559.78;4996806;28;20057;-77
2023/01/25 04:31:05;;;;;;;37.72;14.40;;;;;;;3.33;100.00;102555.66;4998843;28;20460;-78
2023/01/25 04:33:35;;;;;;;37.33;14.88;;;;;;;3.28;100.00;102550.16;5001031;28;20120;-77
2023/01/25 04:36:01;;;;;;;32.33;14.02;;;;;;;3.17;100.00;102553.91;4999044;28;20113;-77
2023/01/25 04:38:27;;;;;;;32.83;14.02;;;;;;;3.12;100.00;102557.97;5002767;28;20108;-77
2023/01/25 04:40:53;;;;;;;32.40;13.95;;;;;;;3.17;100.00;102548.69;4999711;28;20569;-78
2023/01/25 04:43:19;;;;;;;34.60;13.95;;;;;;;3.23;100.00;102549.00;5001734;28;20112;-78
2023/01/25 04:45:45;;;;;;;32.35;15.48;;;;;;;3.24;100.00;102544.69;4999479;28;20034;-78
2023/01/25 04:48:22;;;;;;;38.70;15.23;;;;;;;3.29;100.00;102543.22;4999711;28;20058;-78
2023/01/25 04:50:53;;;;;;;36.03;16.67;;;;;;;3.25;100.00;102542.19;4995550;28;20038;-78
2023/01/25 04:53:20;;;;;;;34.83;17.05;;;;;;;3.23;100.00;102532.47;5000393;28;20042;-78
2023/01/25 04:55:46;;;;;;;39.80;18.10;;;;;;;3.28;100.00;102536.22;5000688;28;20036;-77
2023/01/25 04:58:13;;;;;;;36.10;14.68;;;;;;;3.28;100.00;102538.84;4999182;28;20382;-78
2023/01/25 05:00:39;;;;;;;27.35;12.43;;;;;;;3.28;100.00;102537.13;5000801;28;20065;-77
2023/01/25 05:03:05;;;;;;;30.02;13.93;;;;;;;3.32;100.00;102543.41;4999642;28;20053;-78
2023/01/25 05:05:31;;;;;;;35.97;14.02;;;;;;;3.37;100.00;102535.84;4999257;28;20030;-77
2023/01/25 05:07:58;;;;;;;31.65;13.57;;;;;;;3.41;100.00;102528.25;5000104;28;20034;-78
2023/01/25 05:10:24;;;;;;;29.48;14.10;;;;;;;3.42;100.00;102530.03;5000583;28;20030;-77
2023/01/25 05:13:15;;;;;;;33.30;13.60;;;;;;;3.49;100.00;102528.69;4997404;28;20042;-78
2023/01/25 05:15:42;;;;;;;35.38;13.98;;;;;;;3.51;100.00;102529.63;4986531;28;20031;-77
2023/01/25 05:18:07;;;;;;;33.67;15.15;;;;;;;3.54;100.00;102518.47;5005320;28;20140;-78
2023/01/25 05:20:33;;;;;;;34.05;14.45;;;;;;;3.47;100.00;102512.94;5001793;28;20026;-77
2023/01/25 05:22:59;;;;;;;24.15;12.60;;;;;;;3.41;100.00;102506.50;5002436;28;20057;-77
2023/01/25 05:28:12;;;;;;;22.17;10.98;;;;;;;3.55;100.00;102509.84;5003951;28;20064;-77
2023/01/25 05:31:10;;;;;;;22.45;10.05;;;;;;;3.51;100.00;102504.47;5000868;28;20535;-78
2023/01/25 05:33:35;;;;;;;27.85;11.65;;;;;;;3.49;100.00;102505.19;5023134;23;20089;-73
2023/01/25 05:36:01;;;;;;;31.42;13.38;;;;;;;3.44;100.00;102510.16;4988444;28;20037;-74
2023/01/25 05:38:31;;;;;;;25.02;10.43;;;;;;;3.45;100.00;102503.22;5005240;28;20041;-73
2023/01/25 05:40:58;;;;;;;23.92;11.98;;;;;;;3.47;100.00;102517.25;4993697;28;20142;-74
2023/01/25 05:43:23;;;;;;;32.65;12.45;;;;;;;3.47;100.00;102518.16;5004958;28;20519;-73
2023/01/25 05:45:52;;;;;;;23.45;11.65;;;;;;;3.56;100.00;102519.47;4988543;28;20070;-73
2023/01/25 05:48:18;;;;;;;29.88;11.23;;;;;;;3.60;100.00;102511.00;4994037;28;20505;-74
2023/01/25 05:50:43;;;;;;;23.80;10.23;;;;;;;3.60;100.00;102508.38;4988341;28;20104;-74
2023/01/25 05:53:13;;;;;;;27.02;11.50;;;;;;;3.56;100.00;102509.00;4984279;28;20550;-74
2023/01/25 05:55:39;;;;;;;26.20;12.18;;;;;;;3.53;100.00;102506.25;4981108;28;20026;-73
2023/01/25 05:58:08;;;;;;;27.85;12.70;;;;;;;3.50;100.00;102505.25;4986344;28;20036;-74
2023/01/25 06:00:33;;;;;;;32.67;14.05;;;;;;;3.45;100.00;102498.88;4977095;28;20404;-73
2023/01/25 06:03:00;;;;;;;49.53;23.27;;;;;;;3.47;100.00;102492.03;4994575;28;20054;-74
2023/01/25 06:05:26;;;;;;;36.10;15.73;;;;;;;3.49;100.00;102495.63;4988997;28;20026;-74
2023/01/25 06:07:51;;;;;;;29.60;12.23;;;;;;;3.46;100.00;102495.47;4987499;28;20162;-74
2023/01/25 06:10:18;;;;;;;25.50;11.73;;;;;;;3.48;100.00;102493.84;4984282;28;20130;-73
2023/01/25 06:12:46;;;;;;;22.58;11.93;;;;;;;3.53;100.00;102491.47;4981630;28;20070;-74
2023/01/25 06:15:12;;;;;;;28.52;12.27;;;;;;;3.43;100.00;102500.53;4984337;28;20069;-73
2023/01/25 06:17:37;;;;;;;25.98;12.40;;;;;;;3.39;100.00;102493.34;4988226;28;20084;-73
2023/01/25 06:20:17;;;;;;;28.95;12.48;;;;;;;3.28;100.00;102499.69;4985503;28;20026;-73
2023/01/25 06:22:59;;;;;;;22.98;10.98;;;;;;;3.15;100.00;102492.91;4982789;28;20039;-73
2023/01/25 06:25:24;;;;;;;23.67;10.57;;;;;;;3.16;100.00;102502.50;4985032;28;20501;-73
2023/01/25 06:27:49;;;;;;;36.47;15.10;;;;;;;3.27;100.00;102497.88;4985104;28;20111;-73
2023/01/25 06:30:15;;;;;;;26.90;12.32;;;;;;;3.33;100.00;102499.94;4985916;28;20030;-74
2023/01/25 06:32:40;;;;;;;31.75;13.82;;;;;;;3.25;100.00;102495.22;4982313;28;20049;-73
2023/01/25 06:35:06;;;;;;;29.92;13.43;;;;;;;3.17;100.00;102496.50;4985703;28;20096;-73
2023/01/25 06:37:32;;;;;;;32.92;13.95;;;;;;;3.20;100.00;102503.59;4970934;28;20085;-74
2023/01/25 06:39:57;;;;;;;30.73;11.90;;;;;;;3.29;100.00;102501.47;4992817;28;20437;-73
2023/01/25 06:42:23;;;;;;;33.53;12.43;;;;;;;3.31;100.00;102497.25;4988983;28;20034;-73
2023/01/25 06:44:48;;;;;;;31.98;13.75;;;;;;;3.31;100.00;102494.63;4987195;28;20046;-74
2023/01/25 06:47:14;;;;;;;28.00;11.73;;;;;;;3.26;100.00;102496.09;4987753;28;20027;-73
2023/01/25 06:49:39;;;;;;;24.95;10.70;;;;;;;3.23;100.00;102490.72;4983824;28;20046;-73
2023/01/25 06:52:04;;;;;;;25.42;10.20;;;;;;;3.22;100.00;102488.91;4988068;28;20121;-73
2023/01/25 06:54:30;;;;;;;27.08;9.57;;;;;;;3.19;100.00;102478.31;4988785;28;20089;-73
2023/01/25 06:56:55;;;;;;;21.10;8.25;;;;;;;3.21;100.00;102482.78;4984471;28;20030;-73
2023/01/25 06:59:20;;;;;;;19.02;9.00;;;;;;;3.24;100.00;102471.63;4985387;28;20101;-73
2023/01/25 07:01:46;;;;;;;27.75;9.80;;;;;;;3.23;100.00;102475.06;4983205;28;20043;-73
2023/01/25 07:04:11;;;;;;;32.70;12.85;;;;;;;3.19;100.00;102476.59;4987964;28;20101;-73
2023/01/25 07:06:37;;;;;;;31.13;11.60;;;;;;;3.23;100.00;102467.22;4987566;28;20034;-74
2023/01/25 07:09:09;;;;;;;29.15;11.27;;;;;;;3.30;100.00;102458.91;4985119;28;20034;-73
2023/01/25 07:11:34;;;;;;;28.73;10.55;;;;;;;3.35;100.00;102461.75;4983185;28;20070;-73
2023/01/25 07:14:00;;;;;;;29.92;12.57;;;;;;;3.20;100.00;102459.25;4989002;28;20556;-73
2023/01/25 07:16:25;;;;;;;29.17;11.90;;;;;;;3.12;100.00;102460.50;4982885;28;20045;-74
2023/01/25 07:18:51;;;;;;;29.92;10.88;;;;;;;3.04;100.00;102458.38;4988092;28;20094;-73
2023/01/25 07:21:20;;;;;;;31.48;12.45;;;;;;;3.07;100.00;102461.16;4988437;28;20027;-73
2023/01/25 07:23:45;;;;;;;24.95;10.38;;;;;;;3.08;100.00;102459.44;4981987;28;20042;-74
2023/01/25 07:26:16;;;;;;;25.73;10.73;;;;;;;3.21;100.00;102458.41;4988530;28;20043;-73
2023/01/25 07:28:42;;;;;;;27.88;11.32;;;;;;;3.25;100.00;102453.44;4990881;28;20049;-73
2023/01/25 07:31:08;;;;;;;24.80;10.13;;;;;;;3.25;100.00;102452.56;4981512;28;20039;-74
2023/01/25 07:33:33;;;;;;;26.42;11.52;;;;;;;3.24;100.00;102450.75;4984448;28;20034;-73
2023/01/25 07:36:03;;;;;;;23.77;8.95;;;;;;;3.32;100.00;102444.22;4980567;28;20033;-73
2023/01/25 07:38:29;;;;;;;24.95;10.02;;;;;;;3.38;100.00;102436.75;4983867;28;20126;-73
2023/01/25 07:40:55;;;;;;;30.98;11.63;;;;;;;3.26;100.00;102433.47;4983314;28;20034;-71
2023/01/25 07:43:20;;;;;;;29.48;11.45;;;;;;;3.13;100.00;102438.84;4984345;28;20104;-71
2023/01/25 07:45:48;;;;;;;26.58;10.30;;;;;;;3.15;100.00;102429.38;4967428;28;20106;-72
2023/01/25 07:48:18;;;;;;;29.98;12.02;;;;;;;3.22;100.00;102426.28;4991167;28;20053;-71
2023/01/25 07:50:45;;;;;;;24.63;10.68;;;;;;;3.22;100.00;102424.59;4986753;28;20046;-71
2023/01/25 07:53:12;;;;;;;27.38;10.68;;;;;;;3.23;100.00;102423.75;4987883;28;20062;-71
2023/01/25 07:55:38;;;;;;;25.27;10.25;;;;;;;3.21;100.00;102424.50;4983245;28;20049;-71
2023/01/25 07:58:03;;;;;;;31.95;14.20;;;;;;;3.08;100.00;102423.81;4984342;28;20497;-72
2023/01/25 08:00:29;;;;;;;32.03;14.15;;;;;;;3.16;100.00;102420.72;4981221;28;20113;-71
2023/01/25 08:02:54;;;;;;;28.10;12.40;;;;;;;3.19;100.00;102421.78;4983766;28;20026;-71
2023/01/25 08:05:19;;;;;;;31.50;13.23;;;;;;;3.24;100.00;102419.44;4980943;28;20600;-71
2023/01/25 08:07:47;;;;;;;26.55;10.70;;;;;;;3.24;100.00;102416.81;4986906;28;20048;-71
2023/01/25 08:10:12;;;;;;;31.25;12.93;;;;;;;3.26;100.00;102408.25;4984842;28;20081;-72
2023/01/25 08:12:37;;;;;;;32.38;12.20;;;;;;;3.17;100.00;102414.69;4983946;28;20065;-73
2023/01/25 08:15:03;;;;;;;30.83;14.25;;;;;;;3.20;100.00;102417.50;4978849;28;20445;-74
2023/01/25 08:17:32;;;;;;;27.15;12.07;;;;;;;3.18;100.00;102409.56;4985672;28;20151;-73
2023/01/25 08:20:01;;;;;;;26.30;10.98;;;;;;;3.15;100.00;102414.63;4989291;28;20452;-73
2023/01/25 08:22:27;;;;;;;24.85;11.32;;;;;;;3.20;100.00;102412.28;4984069;28;20113;-73
2023/01/25 08:24:53;;;;;;;24.48;9.55;;;;;;;3.25;100.00;102408.19;4989107;28;20041;-74
2023/01/25 08:27:19;;;;;;;29.70;11.65;;;;;;;3.32;100.00;102415.53;4983462;28;20557;-74
2023/01/25 08:29:44;;;;;;;27.85;10.45;;;;;;;3.37;100.00;102407.94;4983813;28;20114;-73
2023/01/25 08:32:09;;;;;;;21.88;10.82;;;;;;;3.34;100.00;102418.22;4983851;28;20073;-74
2023/01/25 08:34:35;;;;;;;23.13;9.60;;;;;;;3.22;100.00;102415.84;4981871;28;20034;-73
2023/01/25 08:37:00;;;;;;;27.27;10.90;;;;;;;3.15;100.00;102408.50;4987371;28;20045;-73
2023/01/25 08:39:26;;;;;;;23.80;9.93;;;;;;;3.20;100.00;102420.09;4987994;28;20034;-73
2023/01/25 08:41:51;;;;;;;25.17;11.00;;;;;;;3.24;100.00;102416.81;4983023;28;20053;-71
2023/01/25 08:44:21;;;;;;;26.90;11.82;;;;;;;3.32;100.00;102412.03;4982160;28;20030;-72
2023/01/25 08:46:47;;;;;;;35.25;14.45;;;;;;;3.32;100.00;102407.69;4971324;28;20047;-73
2023/01/25 08:49:13;;;;;;;29.48;11.27;;;;;;;3.41;100.00;102410.81;4989600;28;20042;-73
2023/01/25 08:51:38;;;;;;;32.40;13.38;;;;;;;3.43;100.00;102398.75;4992393;28;20041;-73
2023/01/25 08:54:09;;;;;;;26.05;11.70;;;;;;;3.37;100.00;102398.38;4984516;28;20521;-73
2023/01/25 08:56:41;;;;;;;21.88;10.82;;;;;;;3.23;100.00;102402.00;4986833;28;20034;-73
2023/01/25 08:59:09;;;;;;;24.05;10.50;;;;;;;3.24;100.00;102388.13;4988472;28;20034;-74
2023/01/25 09:01:34;;;;;;;26.52;10.73;;;;;;;3.28;100.00;102392.69;4986087;28;20105;-73
2023/01/25 09:04:00;;;;;;;28.13;10.95;;;;;;;3.32;100.00;102394.63;4989219;28;20042;-73
2023/01/25 09:06:26;;;;;;;27.67;9.80;;;;;;;3.33;100.00;102388.63;4978142;28;20031;-74
2023/01/25 09:08:51;;;;;;;24.92;10.35;;;;;;;3.35;100.00;102384.34;4989086;28;20046;-74
2023/01/25 09:11:19;;;;;;;23.35;9.73;;;;;;;3.34;100.00;102385.19;4985473;28;20069;-74
2023/01/25 09:13:45;;;;;;;24.52;9.85;;;;;;;3.29;100.00;102386.66;4985710;28;20089;-74
2023/01/25 09:16:13;;;;;;;23.63;9.48;;;;;;;3.36;100.00;102375.72;4984822;28;20053;-73
2023/01/25 09:18:41;;;;;;;28.90;11.55;;;;;;;3.31;100.00;102378.91;4990726;28;20401;-73
2023/01/25 09:21:12;;;;;;;24.85;11.32;;;;;;;3.29;100.00;102379.72;4990653;28;20038;-73
2023/01/25 09:23:38;;;;;;;23.67;9.23;;;;;;;3.18;100.00;102378.25;4986914;28;20042;-74
2023/01/25 09:26:03;;;;;;;22.58;9.80;;;;;;;3.16;100.00;102376.38;4983426;28;20321;-73
2023/01/25 09:28:31;;;;;;;24.42;11.23;;;;;;;3.22;100.00;102372.41;4990057;28;20109;-73
2023/01/25 09:30:58;;;;;;;30.85;11.52;;;;;;;3.28;100.00;102369.22;4983966;28;20046;-73
2023/01/25 09:33:37;;;;;;;24.13;10.45;;;;;;;3.29;100.00;102369.28;4983092;28;20126;-73
2023/01/25 09:36:03;;;;;;;24.38;10.65;;;;;;;3.29;100.00;102371.00;4988443;28;20038;-73
2023/01/25 09:38:29;;;;;;;23.05;9.73;;;;;;;3.36;100.00;102374.84;4990153;28;20446;-73
2023/01/25 09:41:03;;;;;;;26.58;11.65;;;;;;;3.33;100.00;102372.97;4983346;28;20042;-73
2023/01/25 09:43:48;;;;;;;27.85;12.60;;;;;;;3.22;100.00;102379.31;4985043;28;20042;-73
2023/01/25 09:46:40;;;;;;;22.48;9.85;;;;;;;3.30;100.00;102383.22;4989505;28;20640;-74
2023/01/25 09:49:27;;;;;;;25.80;10.63;;;;;;;3.25;100.00;102385.59;4990384;28;20042;-73
2023/01/25 09:52:11;;;;;;;25.05;11.43;;;;;;;3.37;100.00;102379.22;4988801;28;20141;-74
2023/01/25 09:54:39;;;;;;;24.73;10.93;;;;;;;3.28;100.00;102374.44;4986662;28;20030;-73
2023/01/25 09:57:14;;;;;;;22.80;11.07;;;;;;;3.22;100.00;102371.47;4983229;28;20059;-73
2023/01/25 09:59:40;;;;;;;21.63;9.25;;;;;;;3.34;100.00;102366.91;4987966;28;20038;-74
2023/01/25 10:02:24;;;;;;;21.27;10.50;;;;;;;3.43;100.00;102354.38;4984482;28;20038;-73
2023/01/25 10:04:53;;;;;;;22.33;11.55;;;;;;;3.50;100.00;102356.44;4984197;28;20081;-73
2023/01/25 10:07:42;;;;;;;22.15;9.27;;;;;;;3.50;100.00;102356.44;4983699;28;20049;-73
2023/01/25 10:10:17;;;;;;;21.70;9.27;;;;;;;3.33;100.00;102361.59;4984577;28;20043;-74
2023/01/25 10:12:42;;;;;;;22.65;8.98;;;;;;;3.18;100.00;102362.59;4983566;28;20046;-73
2023/01/25 10:15:20;;;;;;;20.73;8.40;;;;;;;3.18;100.00;102352.16;4985188;28;20100;-73
2023/01/25 10:17:58;;;;;;;18.27;7.78;;;;;;;3.22;100.00;102351.53;4986347;28;20035;-73
2023/01/25 10:20:39;;;;;;;17.58;8.35;;;;;;;3.27;100.00;102356.97;4986167;28;20035;-74
2023/01/25 10:23:40;;;;;;;16.85;8.05;;;;;;;3.32;100.00;102355.50;4982993;28;20536;-74
2023/01/25 10:26:23;;;;;;;21.30;9.63;;;;;;;3.18;100.00;102346.94;4986561;28;20081;-74
2023/01/25 10:29:07;;;;;;;18.38;9.25;;;;;;;3.07;100.00;102333.34;4983776;28;20043;-73
2023/01/25 10:31:42;;;;;;;19.42;8.25;;;;;;;3.03;100.00;102323.53;4984561;28;20038;-73
2023/01/25 10:34:35;;;;;;;18.88;7.88;;;;;;;3.13;100.00;102318.81;4982308;28;20082;-73
2023/01/25 10:37:11;;;;;;;24.70;9.23;;;;;;;3.02;100.00;102321.75;4981431;28;20437;-74
2023/01/25 10:39:46;;;;;;;19.80;9.27;;;;;;;3.02;100.00;102318.25;4986522;28;20089;-73
2023/01/25 10:42:15;;;;;;;20.42;9.30;;;;;;;3.13;100.00;102306.66;4985622;28;20039;-74
2023/01/25 10:44:40;;;;;;;22.10;10.73;;;;;;;3.15;100.00;102301.53;4985162;28;20034;-73
2023/01/25 10:47:28;;;;;;;22.33;9.85;;;;;;;3.28;100.00;102290.94;4982976;28;20045;-74
2023/01/25 10:49:55;;;;;;;17.60;8.48;;;;;;;3.35;100.00;102290.41;4985780;28;20038;-74
2023/01/25 10:52:31;;;;;;;21.23;10.23;;;;;;;3.48;100.00;102290.25;4985866;28;20066;-74
2023/01/25 10:55:18;;;;;;;27.10;10.60;;;;;;;3.50;100.00;102285.06;4984959;28;20035;-73
2023/01/25 10:57:56;;;;;;;21.48;9.95;;;;;;;3.44;100.00;102276.94;4981784;28;20446;-74
2023/01/25 11:00:35;;;;;;;25.77;11.43;;;;;;;3.43;100.00;102275.13;4985543;28;20495;-74
2023/01/25 11:03:00;;;;;;;20.95;9.80;;;;;;;3.28;100.00;102283.09;4986694;28;20045;-74
2023/01/25 11:05:28;;;;;;;23.88;11.18;;;;;;;3.25;100.00;102281.22;4984849;28;20034;-74
2023/01/25 11:07:54;;;;;;;22.40;10.40;;;;;;;3.40;100.00;102281.09;4986936;28;20038;-74
2023/01/25 11:10:32;;;;;;;18.48;8.82;;;;;;;3.46;100.00;102278.81;4986784;28;20433;-73
2023/01/25 11:13:12;;;;;;;19.83;9.60;;;;;;;3.48;100.00;102274.56;4988770;28;20057;-73
2023/01/25 11:15:38;;;;;;;21.60;10.18;;;;;;;3.43;100.00;102270.84;4980879;28;20054;-73
2023/01/25 11:18:27;;;;;;;20.48;8.90;;;;;;;3.44;100.00;102261.28;4986708;28;20129;-74
2023/01/25 11:21:11;;;;;;;21.38;10.27;;;;;;;3.37;100.00;102254.84;4985289;28;20030;-74